createdAt,value
2017-04-06T00:00:21.178Z,0
2017-04-06T00:01:01.686Z,0
2017-04-06T00:01:42.189Z,0
2017-04-06T00:02:22.628Z,0
2017-04-06T00:03:03.109Z,0
2017-04-06T00:03:43.594Z,0
2017-04-06T00:04:24.124Z,0
2017-04-06T00:05:04.595Z,0
2017-04-06T00:05:45.073Z,0
2017-04-06T00:06:25.543Z,0
2017-04-06T00:07:06.035Z,0
2017-04-06T00:07:46.497Z,0
2017-04-06T00:08:26.977Z,0
2017-04-06T00:09:07.449Z,0
2017-04-06T00:09:48.598Z,0
2017-04-06T00:10:29.087Z,0
2017-04-06T00:11:09.570Z,0
2017-04-06T00:11:50.058Z,0
2017-04-06T00:12:30.568Z,0
2017-04-06T00:13:11.035Z,0
2017-04-06T00:13:51.537Z,0
2017-04-06T00:14:32.026Z,0
2017-04-06T00:15:12.532Z,0
2017-04-06T00:15:53.014Z,0
2017-04-06T00:16:33.515Z,0
2017-04-06T00:17:13.948Z,0
2017-04-06T00:17:54.438Z,0
2017-04-06T00:18:34.913Z,0
2017-04-06T00:19:15.363Z,0
2017-04-06T00:19:55.835Z,0
2017-04-06T00:21:53.492Z,0
2017-04-06T00:22:33.963Z,0
2017-04-06T00:23:14.429Z,0
2017-04-06T00:23:55.012Z,0
2017-04-06T00:24:35.589Z,0
2017-04-06T00:25:15.958Z,0
2017-04-06T00:25:56.433Z,0
2017-04-06T00:26:36.890Z,0
2017-04-06T00:27:17.343Z,0
2017-04-06T00:29:30.079Z,0
2017-04-06T00:30:10.561Z,0
2017-04-06T00:30:51.036Z,0
2017-04-06T00:31:31.512Z,0
2017-04-06T00:32:12.759Z,0
2017-04-06T00:32:53.229Z,0
2017-04-06T00:33:33.694Z,0
2017-04-06T00:34:14.174Z,0
2017-04-06T00:34:54.710Z,0
2017-04-06T00:35:35.154Z,0
2017-04-06T00:36:15.650Z,0
2017-04-06T00:36:56.141Z,0
2017-04-06T00:37:36.613Z,0
2017-04-06T00:38:17.100Z,0
2017-04-06T00:38:57.608Z,0
2017-04-06T00:39:38.102Z,0
2017-04-06T00:40:18.545Z,0
2017-04-06T00:40:59.032Z,0
2017-04-06T00:41:39.492Z,0
2017-04-06T00:42:19.964Z,0
2017-04-06T00:44:17.627Z,0
2017-04-06T00:44:58.084Z,0
2017-04-06T00:45:38.551Z,0
2017-04-06T00:46:19.007Z,0
2017-04-06T00:46:59.484Z,0
2017-04-06T00:47:39.947Z,0
2017-04-06T00:48:20.395Z,0
2017-04-06T00:49:00.856Z,0
2017-04-06T00:49:41.305Z,0
2017-04-06T00:50:21.783Z,0
2017-04-06T00:51:02.235Z,0
2017-04-06T00:52:59.932Z,0
2017-04-06T00:53:40.383Z,0
2017-04-06T00:54:20.855Z,0
2017-04-06T00:55:01.345Z,0
2017-04-06T00:55:42.008Z,0
2017-04-06T00:56:22.624Z,0
2017-04-06T00:57:03.110Z,0
2017-04-06T00:57:43.587Z,0
2017-04-06T00:58:24.082Z,0
2017-04-06T00:59:04.562Z,0
2017-04-06T00:59:45.003Z,0
2017-04-06T01:00:25.430Z,0
2017-04-06T01:01:05.905Z,0
2017-04-06T01:03:18.590Z,0
2017-04-06T01:03:59.087Z,0
2017-04-06T01:04:39.550Z,0
2017-04-06T01:05:19.958Z,0
2017-04-06T01:06:00.442Z,0
2017-04-06T01:06:40.874Z,0
2017-04-06T01:07:21.330Z,0
2017-04-06T01:08:01.770Z,0
2017-04-06T01:08:42.229Z,0
2017-04-06T01:09:22.723Z,0
2017-04-06T01:11:50.656Z,0
2017-04-06T01:12:31.119Z,0
2017-04-06T01:13:11.570Z,0
2017-04-06T01:13:52.022Z,0
2017-04-06T01:14:32.494Z,0
2017-04-06T01:15:12.952Z,0
2017-04-06T01:15:53.400Z,0
2017-04-06T01:16:33.813Z,0
2017-04-06T01:18:31.439Z,0
2017-04-06T01:19:11.909Z,0
2017-04-06T01:19:53.165Z,0
2017-04-06T01:20:33.635Z,0
2017-04-06T01:21:14.103Z,0
2017-04-06T01:23:42.033Z,0
2017-04-06T01:24:22.555Z,0
2017-04-06T01:25:03.026Z,0
2017-04-06T01:25:43.518Z,0
2017-04-06T01:26:23.969Z,0
2017-04-06T01:28:56.994Z,0
2017-04-06T01:29:37.473Z,0
2017-04-06T01:30:17.961Z,0
2017-04-06T01:30:58.472Z,0
2017-04-06T01:31:38.975Z,0
2017-04-06T01:32:19.503Z,0
2017-04-06T01:33:00.011Z,0
2017-04-06T01:33:40.513Z,0
2017-04-06T01:34:20.994Z,0
2017-04-06T01:35:01.536Z,0
2017-04-06T01:35:41.997Z,0
2017-04-06T01:36:22.457Z,0
2017-04-06T01:37:02.933Z,0
2017-04-06T01:37:43.408Z,0
2017-04-06T01:38:23.887Z,0
2017-04-06T01:39:04.388Z,0
2017-04-06T01:39:44.882Z,0
2017-04-06T01:40:25.361Z,0
2017-04-06T01:41:05.915Z,0
2017-04-06T01:41:46.313Z,0
2017-04-06T01:42:26.784Z,0
2017-04-06T01:43:07.231Z,0
2017-04-06T01:43:47.709Z,0
2017-04-06T01:44:28.195Z,0
2017-04-06T01:45:08.675Z,0
2017-04-06T01:45:49.111Z,0
2017-04-06T01:46:29.652Z,0
2017-04-06T01:47:10.125Z,0
2017-04-06T01:47:50.584Z,0
2017-04-06T01:48:31.056Z,0
2017-04-06T01:50:48.916Z,0
2017-04-06T01:51:29.392Z,0
2017-04-06T01:52:09.891Z,0
2017-04-06T01:52:50.377Z,0
2017-04-06T01:53:30.849Z,0
2017-04-06T01:54:11.346Z,0
2017-04-06T01:54:51.797Z,0
2017-04-06T01:55:32.272Z,0
2017-04-06T01:56:12.693Z,0
2017-04-06T01:58:45.763Z,0
2017-04-06T01:59:26.261Z,0
2017-04-06T02:00:06.771Z,0
2017-04-06T02:00:47.220Z,0
2017-04-06T02:01:27.682Z,0
2017-04-06T02:02:08.123Z,0
2017-04-06T02:02:48.586Z,0
2017-04-06T02:03:29.036Z,0
2017-04-06T02:04:09.541Z,0
2017-04-06T02:04:49.946Z,0
2017-04-06T02:05:30.405Z,0
2017-04-06T02:06:10.889Z,0
2017-04-06T02:06:51.315Z,0
2017-04-06T02:07:31.777Z,0
2017-04-06T02:08:12.216Z,0
2017-04-06T02:08:52.640Z,0
2017-04-06T02:09:33.104Z,0
2017-04-06T02:11:50.898Z,0
2017-04-06T02:12:31.360Z,0
2017-04-06T02:13:11.870Z,0
2017-04-06T02:13:52.332Z,0
2017-04-06T02:14:32.779Z,0
2017-04-06T02:15:13.240Z,0
2017-04-06T02:15:53.695Z,0
2017-04-06T02:16:34.139Z,0
2017-04-06T02:18:31.873Z,0
2017-04-06T02:19:12.292Z,0
2017-04-06T02:19:52.765Z,0
2017-04-06T02:20:33.254Z,0
2017-04-06T02:21:13.741Z,0
2017-04-06T02:21:54.203Z,0
2017-04-06T02:22:34.712Z,0
2017-04-06T02:23:15.184Z,0
2017-04-06T02:23:55.715Z,0
2017-04-06T02:24:36.199Z,0
2017-04-06T02:25:16.675Z,0
2017-04-06T02:25:57.148Z,0
2017-04-06T02:26:37.658Z,0
2017-04-06T02:29:10.727Z,0
2017-04-06T02:29:51.148Z,0
2017-04-06T02:30:31.619Z,0
2017-04-06T02:31:12.053Z,0
2017-04-06T02:31:52.508Z,0
2017-04-06T02:32:32.979Z,0
2017-04-06T02:33:13.456Z,0
2017-04-06T02:33:53.893Z,0
2017-04-06T02:34:34.364Z,0
2017-04-06T02:35:14.874Z,0
2017-04-06T02:35:55.341Z,0
2017-04-06T02:36:35.772Z,0
2017-04-06T02:37:16.202Z,0
2017-04-06T02:37:56.676Z,0
2017-04-06T02:38:37.145Z,0
2017-04-06T02:39:17.550Z,0
2017-04-06T02:39:58.007Z,0
2017-04-06T02:40:38.474Z,0
2017-04-06T02:41:18.920Z,0
2017-04-06T02:41:59.400Z,0
2017-04-06T02:42:39.836Z,0
2017-04-06T02:43:20.297Z,0
2017-04-06T02:44:00.761Z,0
2017-04-06T02:44:41.216Z,0
2017-04-06T02:45:21.638Z,0
2017-04-06T02:46:02.148Z,0
2017-04-06T02:46:42.612Z,0
2017-04-06T02:47:23.732Z,0
2017-04-06T02:48:04.189Z,0
2017-04-06T02:48:44.644Z,0
2017-04-06T02:49:25.085Z,0
2017-04-06T02:50:05.588Z,0
2017-04-06T02:50:46.069Z,0
2017-04-06T02:51:26.519Z,0
2017-04-06T02:52:06.984Z,0
2017-04-06T02:52:47.443Z,0
2017-04-06T02:53:27.880Z,0
2017-04-06T02:54:08.338Z,0
2017-04-06T02:54:48.759Z,0
2017-04-06T02:55:29.227Z,0
2017-04-06T02:56:09.686Z,0
2017-04-06T02:56:50.132Z,0
2017-04-06T02:59:02.818Z,0
2017-04-06T02:59:43.282Z,0
2017-04-06T03:00:23.736Z,0
2017-04-06T03:01:04.222Z,0
2017-04-06T03:01:44.776Z,0
2017-04-06T03:02:25.231Z,0
2017-04-06T03:03:05.739Z,0
2017-04-06T03:03:46.232Z,0
2017-04-06T03:04:26.692Z,0
2017-04-06T03:06:24.337Z,0
2017-04-06T03:07:04.810Z,0
2017-04-06T03:07:45.828Z,0
2017-04-06T03:08:26.309Z,0
2017-04-06T03:09:06.792Z,0
2017-04-06T03:09:47.281Z,0
2017-04-06T03:10:27.783Z,0
2017-04-06T03:11:08.279Z,0
2017-04-06T03:11:48.775Z,0
2017-04-06T03:12:29.218Z,0
2017-04-06T03:13:09.690Z,0
2017-04-06T03:13:50.174Z,0
2017-04-06T03:16:18.121Z,0
2017-04-06T03:16:58.594Z,0
2017-04-06T03:17:39.053Z,0
2017-04-06T03:18:19.525Z,0
2017-04-06T03:19:00.025Z,0
2017-04-06T03:19:40.491Z,0
2017-04-06T03:20:20.952Z,0
2017-04-06T03:21:01.437Z,0
2017-04-06T03:21:41.922Z,0
2017-04-06T03:22:22.359Z,0
2017-04-06T03:23:02.780Z,0
2017-04-06T03:23:43.210Z,0
2017-04-06T03:25:40.844Z,0
2017-04-06T03:26:21.291Z,0
2017-04-06T03:27:01.793Z,0
2017-04-06T03:27:42.236Z,0
2017-04-06T03:28:22.691Z,0
2017-04-06T03:29:03.171Z,0
2017-04-06T03:29:43.626Z,0
2017-04-06T03:30:24.083Z,0
2017-04-06T03:31:04.505Z,0
2017-04-06T03:31:45.103Z,0
2017-04-06T03:32:25.536Z,0
2017-04-06T03:33:05.994Z,0
2017-04-06T03:33:46.437Z,0
2017-04-06T03:34:26.917Z,0
2017-04-06T03:35:07.351Z,0
2017-04-06T03:37:20.088Z,0
2017-04-06T03:38:00.560Z,0
2017-04-06T03:38:41.039Z,0
2017-04-06T03:39:21.524Z,0
2017-04-06T03:40:02.013Z,0
2017-04-06T03:40:42.488Z,0
2017-04-06T03:41:22.965Z,0
2017-04-06T03:42:03.422Z,0
2017-04-06T03:42:43.922Z,0
2017-04-06T03:43:24.376Z,0
2017-04-06T03:44:04.878Z,0
2017-04-06T03:44:45.365Z,0
2017-04-06T03:45:25.859Z,0
2017-04-06T03:46:06.368Z,0
2017-04-06T03:46:46.825Z,0
2017-04-06T03:47:27.261Z,0
2017-04-06T03:48:07.714Z,0
2017-04-06T03:48:48.171Z,0
2017-04-06T03:49:28.630Z,0
2017-04-06T03:50:09.102Z,0
2017-04-06T03:50:49.582Z,0
2017-04-06T03:53:22.619Z,0
2017-04-06T03:54:03.069Z,0
2017-04-06T03:54:43.534Z,0
2017-04-06T03:57:01.307Z,0
2017-04-06T03:57:41.826Z,0
2017-04-06T03:58:22.318Z,0
2017-04-06T03:59:02.829Z,0
2017-04-06T03:59:43.300Z,0
2017-04-06T04:00:24.353Z,0
2017-04-06T04:01:04.845Z,0
2017-04-06T04:01:45.325Z,0
2017-04-06T04:02:25.803Z,0
2017-04-06T04:03:06.284Z,0
2017-04-06T04:03:46.767Z,0
2017-04-06T04:04:27.267Z,0
2017-04-06T04:05:07.779Z,0
2017-04-06T04:05:48.229Z,0
2017-04-06T04:06:28.714Z,0
2017-04-06T04:07:09.216Z,0
2017-04-06T04:07:49.668Z,0
2017-04-06T04:08:30.160Z,0
2017-04-06T04:09:10.696Z,0
2017-04-06T04:09:51.185Z,0
2017-04-06T04:10:31.687Z,0
2017-04-06T04:11:12.142Z,0
2017-04-06T04:11:52.556Z,0
2017-04-06T04:13:50.197Z,0
2017-04-06T04:14:30.675Z,0
2017-04-06T04:15:11.118Z,0
2017-04-06T04:15:51.578Z,0
2017-04-06T04:16:32.058Z,0
2017-04-06T04:17:12.548Z,0
2017-04-06T04:17:53.007Z,0
2017-04-06T04:18:33.465Z,0
2017-04-06T04:19:13.903Z,0
2017-04-06T04:21:31.733Z,0
2017-04-06T04:22:12.177Z,0
2017-04-06T04:22:52.653Z,4
2017-04-06T04:23:33.114Z,4
2017-04-06T04:24:13.605Z,4
2017-04-06T04:24:54.056Z,0
2017-04-06T04:25:34.542Z,4
2017-04-06T04:26:15.027Z,4
2017-04-06T04:26:55.505Z,0
2017-04-06T04:27:35.953Z,4
2017-04-06T04:28:16.458Z,8
2017-04-06T04:28:56.935Z,4
2017-04-06T04:29:37.434Z,8
2017-04-06T04:30:17.916Z,8
2017-04-06T04:30:58.427Z,4
2017-04-06T04:31:38.904Z,8
2017-04-06T04:32:19.359Z,8
2017-04-06T04:33:00.004Z,12
2017-04-06T04:33:40.463Z,12
2017-04-06T04:34:20.922Z,12
2017-04-06T04:35:01.425Z,16
2017-04-06T04:35:41.853Z,20
2017-04-06T04:40:07.350Z,36
2017-04-06T04:40:47.830Z,40
2017-04-06T04:41:28.318Z,44
2017-04-06T04:42:09.776Z,52
2017-04-06T04:42:50.300Z,56
2017-04-06T04:43:30.722Z,60
2017-04-06T04:44:11.211Z,68
2017-04-06T04:44:51.724Z,72
2017-04-06T04:45:32.214Z,80
2017-04-06T04:46:12.692Z,88
2017-04-06T04:46:53.265Z,92
2017-04-06T04:47:33.761Z,104
2017-04-06T04:48:14.231Z,112
2017-04-06T04:48:54.731Z,124
2017-04-06T04:49:35.239Z,132
2017-04-06T04:50:15.752Z,140
2017-04-06T04:50:56.210Z,152
2017-04-06T04:51:36.684Z,164
2017-04-06T04:52:17.183Z,176
2017-04-06T04:52:57.599Z,184
2017-04-06T04:53:38.074Z,200
2017-04-06T04:54:18.559Z,216
2017-04-06T04:54:59.061Z,224
2017-04-06T04:55:39.541Z,240
2017-04-06T04:56:19.992Z,256
2017-04-06T04:57:00.450Z,272
2017-04-06T04:57:40.953Z,288
2017-04-06T04:58:21.457Z,304
2017-04-06T04:59:01.943Z,324
2017-04-06T04:59:42.475Z,340
2017-04-06T05:00:22.941Z,360
2017-04-06T05:01:03.402Z,380
2017-04-06T05:03:01.053Z,436
2017-04-06T05:03:41.639Z,456
2017-04-06T05:04:22.092Z,476
2017-04-06T05:05:02.554Z,500
2017-04-06T05:05:43.093Z,520
2017-04-06T05:06:23.592Z,544
2017-04-06T05:08:41.415Z,628
2017-04-06T05:09:21.896Z,648
2017-04-06T05:10:02.358Z,676
2017-04-06T05:10:42.844Z,700
2017-04-06T05:11:23.358Z,728
2017-04-06T05:12:03.799Z,748
2017-04-06T05:12:44.274Z,772
2017-04-06T05:13:24.863Z,800
2017-04-06T05:14:05.302Z,824
2017-04-06T05:16:02.971Z,900
2017-04-06T05:16:43.433Z,928
2017-04-06T05:18:41.067Z,1012
2017-04-06T05:19:21.549Z,1044
2017-04-06T05:20:02.058Z,1080
2017-04-06T05:20:42.550Z,1116
2017-04-06T05:21:23.047Z,1148
2017-04-06T05:22:03.522Z,1188
2017-04-06T05:22:44.023Z,1228
2017-04-06T05:23:24.497Z,1272
2017-04-06T05:24:04.996Z,1324
2017-04-06T05:24:45.470Z,1376
2017-04-06T05:25:25.958Z,1432
2017-04-06T05:26:06.489Z,1488
2017-04-06T05:26:46.979Z,1552
2017-04-06T05:27:27.519Z,1604
2017-04-06T05:28:07.975Z,1656
2017-04-06T05:28:48.433Z,1700
2017-04-06T05:29:28.882Z,1736
2017-04-06T05:30:09.325Z,1784
2017-04-06T05:30:49.808Z,1852
2017-04-06T05:31:30.287Z,1936
2017-04-06T05:32:10.771Z,2020
2017-04-06T05:32:51.244Z,2092
2017-04-06T05:33:31.734Z,2144
2017-04-06T05:34:12.198Z,2244
2017-04-06T05:34:52.731Z,2372
2017-04-06T05:35:33.215Z,2460
2017-04-06T05:36:13.693Z,2612
2017-04-06T05:36:54.173Z,2768
2017-04-06T05:37:34.648Z,2912
2017-04-06T05:40:02.589Z,2836
2017-04-06T05:40:43.054Z,2960
2017-04-06T05:41:23.520Z,3048
2017-04-06T05:42:03.971Z,3004
2017-04-06T05:42:44.435Z,2860
2017-04-06T05:43:24.927Z,2716
2017-04-06T05:44:05.368Z,2608
2017-04-06T05:44:45.810Z,2532
2017-04-06T05:46:43.493Z,2444
2017-04-06T05:47:23.973Z,2432
2017-04-06T05:48:04.454Z,2472
2017-04-06T05:48:44.960Z,2540
2017-04-06T05:49:25.424Z,2692
2017-04-06T05:50:05.860Z,2900
2017-04-06T05:50:46.291Z,3120
2017-04-06T05:51:26.739Z,3208
2017-04-06T05:52:07.257Z,3192
2017-04-06T05:52:47.810Z,3344
2017-04-06T05:53:28.267Z,3520
2017-04-06T05:54:08.726Z,3636
2017-04-06T05:54:49.180Z,3700
2017-04-06T05:56:46.847Z,3856
2017-04-06T05:59:14.926Z,4212
2017-04-06T05:59:55.425Z,4312
2017-04-06T06:02:23.367Z,4604
2017-04-06T06:03:03.860Z,4692
2017-04-06T06:03:44.335Z,4768
2017-04-06T06:04:24.794Z,4872
2017-04-06T06:05:05.277Z,4904
2017-04-06T06:05:45.783Z,4980
2017-04-06T06:06:26.283Z,5056
2017-04-06T06:07:06.739Z,5100
2017-04-06T06:07:47.216Z,5160
2017-04-06T06:08:27.690Z,5256
2017-04-06T06:09:08.204Z,5360
2017-04-06T06:09:48.747Z,5420
2017-04-06T06:10:29.154Z,5528
2017-04-06T06:12:57.169Z,5844
2017-04-06T06:13:37.694Z,5936
2017-04-06T06:14:18.148Z,5944
2017-04-06T06:16:46.065Z,6352
2017-04-06T06:17:26.520Z,6404
2017-04-06T06:18:06.996Z,6480
2017-04-06T06:18:47.561Z,6536
2017-04-06T06:19:28.019Z,6632
2017-04-06T06:20:08.473Z,6748
2017-04-06T06:20:49.076Z,6848
2017-04-06T06:21:29.537Z,6936
2017-04-06T06:22:10.036Z,6460
2017-04-06T06:24:37.922Z,3684
2017-04-06T06:25:18.436Z,3708
2017-04-06T06:25:58.890Z,3736
2017-04-06T06:26:39.412Z,3752
2017-04-06T06:27:19.860Z,3764
2017-04-06T06:28:00.350Z,3776
2017-04-06T06:28:40.858Z,3776
2017-04-06T06:29:21.408Z,3784
2017-04-06T06:30:01.890Z,3800
2017-04-06T06:30:42.350Z,3812
2017-04-06T06:31:22.810Z,3836
2017-04-06T06:32:03.289Z,3860
2017-04-06T06:32:43.813Z,3908
2017-04-06T06:33:24.280Z,3964
2017-04-06T06:34:04.732Z,4012
2017-04-06T06:34:45.203Z,4068
2017-04-06T06:35:25.638Z,4156
2017-04-06T06:36:06.105Z,4200
2017-04-06T06:36:46.701Z,4172
2017-04-06T06:37:27.155Z,4148
2017-04-06T06:39:24.932Z,4324
2017-04-06T06:40:05.392Z,4384
2017-04-06T06:40:45.881Z,4456
2017-04-06T06:41:26.423Z,4508
2017-04-06T06:42:06.857Z,4632
2017-04-06T06:44:39.983Z,4804
2017-04-06T06:45:20.466Z,4724
2017-04-06T06:47:38.337Z,4824
2017-04-06T06:48:18.808Z,4868
2017-04-06T06:48:59.312Z,4856
2017-04-06T06:49:39.936Z,4884
2017-04-06T06:51:37.604Z,6536
2017-04-06T06:52:18.079Z,8280
2017-04-06T06:52:58.536Z,9880
2017-04-06T06:53:39.013Z,10816
2017-04-06T06:54:19.491Z,11016
2017-04-06T06:54:59.953Z,10876
2017-04-06T06:55:40.569Z,10212
2017-04-06T06:56:21.131Z,9716
2017-04-06T06:57:01.577Z,10256
2017-04-06T06:57:42.751Z,10840
2017-04-06T06:58:23.187Z,11360
2017-04-06T06:59:03.676Z,11716
2017-04-06T06:59:44.173Z,12020
2017-04-06T07:00:24.763Z,12180
2017-04-06T07:01:05.439Z,12304
2017-04-06T07:01:46.021Z,12564
2017-04-06T07:02:26.663Z,12748
2017-04-06T07:03:07.140Z,12812
2017-04-06T07:03:47.642Z,12812
2017-04-06T07:04:28.315Z,12052
2017-04-06T07:05:08.930Z,10160
2017-04-06T07:05:49.509Z,8836
2017-04-06T07:06:30.129Z,10888
2017-04-06T07:07:10.558Z,7528
2017-04-06T07:07:50.995Z,6748
2017-04-06T07:08:31.552Z,6536
2017-04-06T07:09:12.076Z,6076
2017-04-06T07:09:52.524Z,5968
2017-04-06T07:10:33.221Z,5948
2017-04-06T07:11:13.693Z,5936
2017-04-06T07:13:31.531Z,6436
2017-04-06T07:14:11.987Z,6572
2017-04-06T07:14:52.510Z,6852
2017-04-06T07:15:33.033Z,7204
2017-04-06T07:16:13.614Z,7516
2017-04-06T07:16:54.139Z,7804
2017-04-06T07:17:34.634Z,8116
2017-04-06T07:18:15.143Z,8820
2017-04-06T07:18:55.606Z,9480
2017-04-06T07:19:36.114Z,9516
2017-04-06T07:20:16.643Z,11360
2017-04-06T07:20:57.253Z,11044
2017-04-06T07:21:37.899Z,11008
2017-04-06T07:22:18.376Z,12968
2017-04-06T07:22:58.865Z,13808
2017-04-06T07:23:39.442Z,17632
2017-04-06T07:24:19.884Z,14096
2017-04-06T07:25:00.386Z,18080
2017-04-06T07:25:40.928Z,21280
2017-04-06T07:26:21.442Z,22496
2017-04-06T07:27:01.993Z,23104
2017-04-06T07:27:42.530Z,23744
2017-04-06T07:28:23.044Z,24000
2017-04-06T07:29:03.524Z,23712
2017-04-06T07:29:44.005Z,23936
2017-04-06T07:30:24.514Z,23584
2017-04-06T07:31:05.009Z,24512
2017-04-06T07:31:45.536Z,24704
2017-04-06T07:32:26.142Z,24320
2017-04-06T07:33:06.743Z,24544
2017-04-06T07:33:47.432Z,25216
2017-04-06T07:34:28.083Z,25856
2017-04-06T07:35:08.640Z,26272
2017-04-06T07:35:49.312Z,26336
2017-04-06T07:36:29.866Z,26432
2017-04-06T07:37:10.439Z,19840
2017-04-06T07:37:51.924Z,25824
2017-04-06T07:38:32.560Z,15896
2017-04-06T07:39:13.247Z,26240
2017-04-06T07:39:53.914Z,25696
2017-04-06T07:40:34.561Z,16588
2017-04-06T07:41:15.149Z,15132
2017-04-06T07:41:55.776Z,27104
2017-04-06T07:42:36.435Z,29984
2017-04-06T07:43:16.998Z,25664
2017-04-06T07:43:57.563Z,30176
2017-04-06T07:44:38.187Z,30848
2017-04-06T07:45:18.806Z,31936
2017-04-06T07:45:59.452Z,37280
2017-04-06T07:46:40.167Z,21824
2017-04-06T07:47:20.805Z,20960
2017-04-06T07:48:01.438Z,35616
2017-04-06T07:48:41.974Z,66112
2017-04-06T07:49:22.580Z,67424
2017-04-06T07:50:03.164Z,66656
2017-04-06T07:50:43.740Z,64992
2017-04-06T07:51:24.260Z,63392
2017-04-06T07:52:04.843Z,65056
2017-04-06T07:52:45.351Z,62976
2017-04-06T07:53:26.041Z,64000
2017-04-06T07:54:06.499Z,62496
2017-04-06T07:54:47.054Z,39936
2017-04-06T07:55:27.500Z,17088
2017-04-06T07:56:07.941Z,40000
2017-04-06T07:56:48.434Z,36064
2017-04-06T07:57:28.875Z,34592
2017-04-06T07:58:10.372Z,21952
2017-04-06T08:00:08.122Z,11868
2017-04-06T08:00:48.588Z,10788
2017-04-06T08:01:29.087Z,10396
2017-04-06T08:02:09.657Z,10324
2017-04-06T08:02:50.137Z,10308
2017-04-06T08:03:30.655Z,10124
2017-04-06T08:04:11.119Z,10072
2017-04-06T08:06:29.166Z,10944
2017-04-06T08:07:09.673Z,11196
2017-04-06T08:07:50.162Z,11396
2017-04-06T08:08:30.671Z,11728
2017-04-06T08:09:11.204Z,12184
2017-04-06T08:09:51.700Z,12464
2017-04-06T08:10:32.228Z,12748
2017-04-06T08:11:12.696Z,13604
2017-04-06T08:11:53.491Z,13560
2017-04-06T08:12:34.057Z,13360
2017-04-06T08:13:14.609Z,13472
2017-04-06T08:13:55.126Z,13244
2017-04-06T08:14:35.618Z,13348
2017-04-06T08:15:16.086Z,15700
2017-04-06T08:15:56.589Z,17632
2017-04-06T08:16:37.070Z,13528
2017-04-06T08:17:17.539Z,12728
2017-04-06T08:17:58.047Z,13456
2017-04-06T08:20:10.743Z,14320
2017-04-06T08:20:51.219Z,13156
2017-04-06T08:21:31.669Z,11936
2017-04-06T08:22:12.218Z,10964
2017-04-06T08:22:52.776Z,9652
2017-04-06T08:23:33.281Z,8752
2017-04-06T08:24:13.743Z,8684
2017-04-06T08:24:54.203Z,11528
2017-04-06T08:25:34.711Z,7832
2017-04-06T08:29:45.167Z,4908
2017-04-06T08:30:25.703Z,4720
2017-04-06T08:32:43.721Z,4316
2017-04-06T08:33:24.199Z,4220
2017-04-06T08:34:04.672Z,4144
2017-04-06T08:34:45.167Z,4188
2017-04-06T08:35:25.707Z,4196
2017-04-06T08:36:06.267Z,4220
2017-04-06T08:36:46.804Z,4312
2017-04-06T08:37:27.679Z,4412
2017-04-06T08:38:08.171Z,4520
2017-04-06T08:38:48.684Z,4596
2017-04-06T08:39:29.163Z,4636
2017-04-06T08:40:09.628Z,4636
2017-04-06T08:40:50.140Z,4596
2017-04-06T08:41:30.728Z,4636
2017-04-06T08:42:11.309Z,4608
2017-04-06T08:42:51.773Z,4608
2017-04-06T08:43:32.323Z,4740
2017-04-06T08:44:12.880Z,4856
2017-04-06T08:44:53.670Z,4868
2017-04-06T08:45:34.312Z,4904
2017-04-06T08:46:14.774Z,4936
2017-04-06T08:46:55.331Z,4940
2017-04-06T08:47:35.783Z,4900
2017-04-06T08:48:16.258Z,4976
2017-04-06T08:50:49.376Z,5184
2017-04-06T08:51:29.830Z,5176
2017-04-06T08:52:10.304Z,5168
2017-04-06T08:52:50.849Z,5324
2017-04-06T08:53:31.383Z,5428
2017-04-06T08:54:11.784Z,5560
2017-04-06T08:56:39.870Z,6504
2017-04-06T08:57:20.276Z,6780
2017-04-06T08:58:00.849Z,7080
2017-04-06T08:58:41.444Z,7376
2017-04-06T08:59:21.911Z,7692
2017-04-06T09:00:02.449Z,7992
2017-04-06T09:00:42.931Z,8280
2017-04-06T09:01:23.386Z,8748
2017-04-06T09:02:03.857Z,9156
2017-04-06T09:02:44.494Z,9532
2017-04-06T09:03:24.968Z,9936
2017-04-06T09:04:05.552Z,10316
2017-04-06T09:04:46.231Z,10620
2017-04-06T09:05:26.768Z,10764
2017-04-06T09:06:07.350Z,10900
2017-04-06T09:06:47.928Z,11064
2017-04-06T09:07:28.620Z,11356
2017-04-06T09:08:09.334Z,11400
2017-04-06T09:08:49.974Z,11204
2017-04-06T09:09:30.549Z,10972
2017-04-06T09:10:11.024Z,10808
2017-04-06T09:10:51.545Z,10648
2017-04-06T09:11:31.989Z,10420
2017-04-06T09:12:12.555Z,10236
2017-04-06T09:12:53.241Z,10296
2017-04-06T09:13:33.729Z,10400
2017-04-06T09:14:14.172Z,10448
2017-04-06T09:14:54.698Z,10544
2017-04-06T09:15:35.140Z,10740
2017-04-06T09:16:15.662Z,10940
2017-04-06T09:16:56.174Z,11080
2017-04-06T09:17:36.741Z,11372
2017-04-06T09:18:17.206Z,11664
2017-04-06T09:18:57.672Z,11812
2017-04-06T09:19:38.159Z,12112
2017-04-06T09:20:18.689Z,12376
2017-04-06T09:20:59.217Z,12532
2017-04-06T09:21:39.688Z,12832
2017-04-06T09:22:20.180Z,13032
2017-04-06T09:23:00.642Z,13292
2017-04-06T09:23:41.187Z,13400
2017-04-06T09:24:21.741Z,13408
2017-04-06T09:25:02.226Z,13288
2017-04-06T09:25:42.791Z,12988
2017-04-06T09:28:11.077Z,12288
2017-04-06T09:28:51.620Z,12208
2017-04-06T09:29:32.090Z,12120
2017-04-06T09:30:12.549Z,12176
2017-04-06T09:30:53.011Z,12316
2017-04-06T09:31:33.485Z,12352
2017-04-06T09:32:14.129Z,12356
2017-04-06T09:32:54.737Z,12352
2017-04-06T09:33:35.375Z,12320
2017-04-06T09:34:15.907Z,12284
2017-04-06T09:36:13.648Z,11760
2017-04-06T09:36:54.261Z,11624
2017-04-06T09:37:34.815Z,11484
2017-04-06T09:38:15.366Z,11248
2017-04-06T09:38:56.785Z,10952
2017-04-06T09:39:37.243Z,10700
2017-04-06T09:40:17.699Z,10584
2017-04-06T09:40:58.186Z,10404
2017-04-06T09:41:38.680Z,10352
2017-04-06T09:42:19.164Z,10344
2017-04-06T09:42:59.622Z,10204
2017-04-06T09:43:40.139Z,10004
2017-04-06T09:44:20.627Z,9940
2017-04-06T09:45:01.161Z,9760
2017-04-06T09:45:41.571Z,9496
2017-04-06T09:46:22.085Z,9204
2017-04-06T09:47:02.642Z,8992
2017-04-06T09:49:35.917Z,8572
2017-04-06T09:50:16.460Z,8604
2017-04-06T09:50:57.101Z,8680
2017-04-06T09:51:37.600Z,8712
2017-04-06T09:52:18.445Z,8620
2017-04-06T09:52:59.094Z,8504
2017-04-06T09:53:39.876Z,8440
2017-04-06T09:54:20.442Z,8392
2017-04-06T09:55:01.908Z,8464
2017-04-06T09:55:42.496Z,8764
2017-04-06T09:56:23.047Z,9012
2017-04-06T09:57:03.633Z,9240
2017-04-06T09:57:44.259Z,9384
2017-04-06T09:58:24.902Z,9300
2017-04-06T09:59:05.567Z,9096
2017-04-06T09:59:46.117Z,9240
2017-04-06T10:00:26.832Z,9528
2017-04-06T10:01:08.096Z,9712
2017-04-06T10:01:48.647Z,9752
2017-04-06T10:02:29.228Z,9676
2017-04-06T10:03:09.756Z,9880
2017-04-06T10:03:50.254Z,10344
2017-04-06T10:04:30.717Z,10816
2017-04-06T10:05:11.253Z,11132
2017-04-06T10:05:51.709Z,11328
2017-04-06T10:06:32.194Z,11388
2017-04-06T10:07:12.735Z,11444
2017-04-06T10:07:53.176Z,11508
2017-04-06T10:10:24.270Z,10984
2017-04-06T10:11:05.932Z,11028
2017-04-06T10:11:46.432Z,11148
2017-04-06T10:12:26.874Z,11096
2017-04-06T10:13:07.411Z,11256
2017-04-06T10:15:20.175Z,11624
2017-04-06T10:16:00.654Z,11584
2017-04-06T10:16:41.174Z,11544
2017-04-06T10:17:21.761Z,11512
2017-04-06T10:18:02.255Z,11436
2017-04-06T10:18:42.864Z,11372
2017-04-06T10:19:23.256Z,11340
2017-04-06T10:20:03.777Z,11332
2017-04-06T10:20:44.331Z,11312
2017-04-06T10:21:24.836Z,11236
2017-04-06T10:22:05.382Z,11228
2017-04-06T10:22:45.886Z,11104
2017-04-06T10:23:26.369Z,10980
2017-04-06T10:24:06.902Z,10960
2017-04-06T10:24:47.422Z,11076
2017-04-06T10:25:29.685Z,11044
2017-04-06T10:26:11.380Z,10968
2017-04-06T10:26:52.788Z,10864
2017-04-06T10:27:33.259Z,10780
2017-04-06T10:28:13.737Z,10824
2017-04-06T10:28:54.471Z,10984
2017-04-06T10:29:35.051Z,11096
2017-04-06T10:30:15.615Z,11136
2017-04-06T10:30:56.118Z,11216
2017-04-06T10:31:36.583Z,11284
2017-04-06T10:32:17.034Z,11352
2017-04-06T10:34:14.653Z,11516
2017-04-06T10:34:55.105Z,11656
2017-04-06T10:36:52.761Z,12016
2017-04-06T10:37:33.333Z,12196
2017-04-06T10:38:13.812Z,12308
2017-04-06T10:38:54.287Z,12496
2017-04-06T10:39:34.819Z,12828
2017-04-06T10:40:15.258Z,13184
2017-04-06T10:40:55.795Z,13424
2017-04-06T10:41:36.309Z,13716
2017-04-06T10:42:16.825Z,13964
2017-04-06T10:42:57.341Z,14060
2017-04-06T10:43:37.904Z,14236
2017-04-06T10:44:18.408Z,14504
2017-04-06T10:44:59.123Z,14796
2017-04-06T10:45:39.628Z,15192
2017-04-06T10:46:20.560Z,15572
2017-04-06T10:47:01.736Z,15852
2017-04-06T10:47:42.193Z,16412
2017-04-06T10:48:22.915Z,17108
2017-04-06T10:49:03.444Z,17320
2017-04-06T10:49:43.856Z,17664